Observations for DINARD PLEURTUIT, France (LFRD)

LFRD 242030Z AUTO 23010KT 9999 FEW025 OVC044 13/10 Q1016 NOSIG  
LFRD 242000Z AUTO 24011KT 9999 BKN044 14/10 Q1015 NOSIG 
LFRD 241930Z AUTO 24009KT 9999 BKN046 OVC052 14/09 Q1015 NOSIG  
LFRD 241900Z AUTO 26011KT 9999 FEW035 OVC045 15/10 Q1015 NOSIG  
LFRD 241830Z AUTO 24012KT 9999 BKN036 OVC046 16/09 Q1015 NOSIG  
LFRD 241800Z AUTO 26004KT 220V310 9999 OVC039 15/10 Q1015 NOSIG 
LFRD 241730Z AUTO 23012KT 9999 FEW041 17/09 Q1015 NOSIG 
LFRD 241700Z AUTO 24011KT 9999 FEW042 17/09 Q1015 NOSIG 
LFRD 241630Z AUTO 22013KT 190V250 9999 FEW040 19/09 Q1015 NOSIG 
LFRD 241600Z AUTO 22011KT 9999 FEW041 19/10 Q1015 NOSIG 
LFRD 241530Z AUTO 24011KT 200V260 9999 FEW040 20/09 Q1016 NOSIG 
LFRD 241500Z AUTO 21012KT CAVOK 19/10 Q1016 NOSIG   
LFRD 241430Z AUTO 21012KT 180V270 9999 FEW038 19/10 Q1016 NOSIG 
LFRD 241400Z AUTO 23011KT 190V260 CAVOK 19/10 Q1017 NOSIG   
LFRD 241330Z AUTO 22010KT 180V280 9999 SCT031 19/10 Q1017 NOSIG 
LFRD 241300Z AUTO 21011KT 9999 BKN029 BKN034 18/10 Q1018 NOSIG  
LFRD 241230Z AUTO 19009KT 160V220 9999 OVC027 18/11 Q1018 NOSIG 
LFRD 241200Z AUTO 19008KT 160V230 9999 OVC027 17/11 Q1018 NOSIG 
LFRD 241130Z AUTO 20008KT 170V240 9999 OVC028 17/11 Q1019 NOSIG 
LFRD 241100Z AUTO 18008KT 150V230 9999 BKN022 OVC028 17/11 Q1019 NOSIG  
LFRD 241030Z AUTO 19006G18KT 140V240 9999 SCT022 OVC029 16/10 Q1019 NOSIG   
LFRD 241000Z AUTO 20006KT 150V260 9999 FEW018 OVC030 15/10 Q1020 NOSIG  
LFRD 240930Z AUTO 22008KT 180V250 9999 OVC018 14/09 Q1020 NOSIG 
LFRD 240900Z AUTO 21007KT 180V240 9999 FEW013 OVC019 13/10 Q1020 NOSIG  
LFRD 240830Z AUTO 22008KT 9999 SCT011 OVC023 12/09 Q1020 TEMPO BKN012   
LFRD 240800Z AUTO 24007KT 9999 OVC027 12/09 Q1020 TEMPO BKN012  
LFRD 240730Z AUTO 22007KT 9999 FEW026 12/09 Q1020 TEMPO BKN012  
LFRD 240700Z AUTO 21006KT CAVOK 11/08 Q1020 TEMPO BKN012
LFRD 240630Z AUTO 20006KT 9999 FEW021 09/07 Q1020 TEMPO BKN012  
LFRD 240600Z AUTO 20005KT 9999 FEW017 08/06 Q1020 TEMPO BKN012  
LFRD 240530Z AUTO 20005KT 9999 BKN016 07/05 Q1020 TEMPO BKN012  
LFRD 240500Z AUTO 22003KT CAVOK 06/05 Q1020 TEMPO BKN015
LFRD 240430Z AUTO 19005KT CAVOK 06/04 Q1019 TEMPO BKN015
LFRD 240400Z AUTO 19004KT CAVOK 06/04 Q1020 TEMPO BKN015
LFRD 240330Z AUTO 19004KT CAVOK 06/05 Q1020 NOSIG   
LFRD 240300Z AUTO 18006KT CAVOK 06/04 Q1020 NOSIG   
LFRD 240230Z AUTO 19004KT CAVOK 06/04 Q1020 NOSIG   
LFRD 240200Z AUTO 18004KT CAVOK 06/04 Q1020 NOSIG   
LFRD 240130Z AUTO 20004KT CAVOK 06/05 Q1020 NOSIG   
LFRD 240100Z AUTO 20004KT CAVOK 06/05 Q1021 NOSIG   
LFRD 240030Z AUTO 19004KT CAVOK 06/04 Q1021 NOSIG   
LFRD 240000Z AUTO 19004KT CAVOK 07/04 Q1021 NOSIG   
LFRD 232330Z AUTO 19002KT CAVOK 07/05 Q1021 NOSIG   
LFRD 232300Z AUTO 17004KT CAVOK 07/05 Q1021 NOSIG   
LFRD 232230Z AUTO 17003KT CAVOK 07/05 Q1021 NOSIG   
LFRD 232200Z AUTO 17003KT CAVOK 08/05 Q1021 NOSIG   
LFRD 232130Z AUTO 17001KT CAVOK 08/05 Q1021 NOSIG   
LFRD 232100Z AUTO 00000KT CAVOK 08/05 Q1022 NOSIG   
LFRD 232030Z AUTO 00000KT CAVOK 09/05 Q1021 NOSIG   
LFRD 232000Z AUTO 34003KT CAVOK 09/05 Q1021 NOSIG